Terminal Aerodrome Forecast
Issued by NWS

Home | Current Version | Previous Version | Text Only | Print | Product List | Glossary On
Versions: 1 2 3 4 5 6 7 8 9 10 11 12 13 14 15 16 17 18 19 20 21 22 23 24
000
FTUS44 KHGX 200523
TAFIAH
TAF
KIAH 200523Z 2006/2112 VRB03KT P6SM BKN250
     FM200900 VRB03KT 6SM BR FEW015 SCT120
     FM201400 14010KT P6SM FEW030 SCT070 SCT120
     FM210200 15006KT P6SM BKN060 BKN120=

USA.gov is the U.S. government's official web portal to all federal, state and local government web resources and services.